KLM809 KMSP-KJFK
Flight info
| Callsign | KLM809 |
|---|---|
| Flight time | 1h 59m |
| Altitude | 37000 |
| Route | COULT7 DLL HASTE DAFLU J70 JHW Q476 WLKES PUCKY1 |
| Aircraft | B737/M-SDE2E3FGHIRWXY/LB1 |
Departure
| Time | 2026-05-08 11:14 |
|---|---|
| Airport | Minneapolis–Saint Paul International Airport / Wold–Chamberlain Field (KMSP) |
Arrival
| Time | 2026-05-08 13:14 |
|---|---|
| Airport | John F. Kennedy International Airport (KJFK) |
| Time | Latitude | Longitude | Altitude | Speed | Heading |
|---|---|---|---|---|---|
| 2026-05-08 10:59 | 44.88314 | -93.21507 | 825 ft | 0 kts | 12° |
| 2026-05-08 11:03 | 44.88294 | -93.21514 | 829 ft | 4 kts | 22° |
| 2026-05-08 11:03 | 44.88270 | -93.21532 | 827 ft | 4 kts | 38° |
| 2026-05-08 11:03 | 44.88250 | -93.21557 | 831 ft | 4 kts | 40° |
| 2026-05-08 11:03 | 44.88233 | -93.21576 | 825 ft | 4 kts | 47° |
| 2026-05-08 11:04 | 44.88220 | -93.21606 | 826 ft | 4 kts | 83° |
| 2026-05-08 11:04 | 44.88222 | -93.21635 | 825 ft | 1 kts | 121° |
| 2026-05-08 11:09 | 44.88214 | -93.21615 | 830 ft | 5 kts | 120° |
| 2026-05-08 11:09 | 44.88192 | -93.21562 | 829 ft | 8 kts | 121° |
| 2026-05-08 11:09 | 44.88139 | -93.21486 | 831 ft | 14 kts | 151° |
| 2026-05-08 11:09 | 44.88049 | -93.21387 | 831 ft | 19 kts | 123° |
| 2026-05-08 11:10 | 44.88016 | -93.21199 | 833 ft | 22 kts | 88° |
| 2026-05-08 11:10 | 44.87947 | -93.20994 | 832 ft | 25 kts | 121° |
| 2026-05-08 11:10 | 44.87888 | -93.20859 | 832 ft | 16 kts | 121° |
| 2026-05-08 11:10 | 44.87819 | -93.20701 | 832 ft | 21 kts | 123° |
| 2026-05-08 11:11 | 44.87729 | -93.20513 | 831 ft | 25 kts | 122° |
| 2026-05-08 11:11 | 44.87629 | -93.20284 | 824 ft | 29 kts | 122° |
| 2026-05-08 11:11 | 44.87540 | -93.20079 | 822 ft | 14 kts | 121° |
| 2026-05-08 11:11 | 44.87457 | -93.20053 | 829 ft | 14 kts | 209° |
| 2026-05-08 11:12 | 44.87452 | -93.20056 | 829 ft | 0 kts | 210° |
| 2026-05-08 11:13 | 44.87452 | -93.20057 | 829 ft | 1 kts | 210° |
| 2026-05-08 11:13 | 44.87435 | -93.20071 | 829 ft | 5 kts | 210° |
| 2026-05-08 11:13 | 44.87396 | -93.20115 | 825 ft | 10 kts | 233° |
| 2026-05-08 11:13 | 44.87398 | -93.20228 | 824 ft | 14 kts | 300° |
| 2026-05-08 11:14 | 44.87464 | -93.20383 | 824 ft | 39 kts | 301° |
| 2026-05-08 11:14 | 44.87753 | -93.21048 | 830 ft | 117 kts | 301° |
| 2026-05-08 11:14 | 44.88297 | -93.22300 | 924 ft | 173 kts | 301° |
| 2026-05-08 11:14 | 44.88948 | -93.23779 | 1703 ft | 185 kts | 301° |
| 2026-05-08 11:15 | 44.89649 | -93.25460 | 2254 ft | 213 kts | 297° |
| 2026-05-08 11:15 | 44.90403 | -93.27425 | 2604 ft | 236 kts | 292° |
| 2026-05-08 11:15 | 44.90666 | -93.29627 | 3578 ft | 228 kts | 262° |
| 2026-05-08 11:15 | 44.90273 | -93.31801 | 4365 ft | 234 kts | 253° |
| 2026-05-08 11:16 | 44.89442 | -93.33880 | 4869 ft | 255 kts | 226° |
| 2026-05-08 11:16 | 44.87896 | -93.35170 | 5773 ft | 266 kts | 198° |
| 2026-05-08 11:16 | 44.86025 | -93.35288 | 6761 ft | 277 kts | 171° |
| 2026-05-08 11:16 | 44.84208 | -93.34249 | 7637 ft | 288 kts | 153° |
| 2026-05-08 11:17 | 44.82468 | -93.32757 | 8484 ft | 296 kts | 151° |
| 2026-05-08 11:17 | 44.80716 | -93.31170 | 9353 ft | 303 kts | 150° |
| 2026-05-08 11:17 | 44.79147 | -93.29131 | 10124 ft | 316 kts | 122° |
| 2026-05-08 11:17 | 44.78344 | -93.26200 | 10688 ft | 332 kts | 102° |
| 2026-05-08 11:18 | 44.77879 | -93.22878 | 10939 ft | 357 kts | 99° |
| 2026-05-08 11:18 | 44.77418 | -93.19429 | 11546 ft | 368 kts | 101° |
| 2026-05-08 11:18 | 44.76871 | -93.15881 | 12395 ft | 372 kts | 103° |
| 2026-05-08 11:18 | 44.76242 | -93.12331 | 13285 ft | 376 kts | 104° |
| 2026-05-08 11:19 | 44.75542 | -93.08757 | 14092 ft | 381 kts | 105° |
| 2026-05-08 11:19 | 44.74792 | -93.05168 | 14882 ft | 383 kts | 107° |
| 2026-05-08 11:19 | 44.74011 | -93.01563 | 15703 ft | 386 kts | 107° |
| 2026-05-08 11:19 | 44.73210 | -92.97940 | 16512 ft | 388 kts | 107° |
| 2026-05-08 11:20 | 44.72397 | -92.94303 | 17306 ft | 392 kts | 107° |
| 2026-05-08 11:20 | 44.71574 | -92.90636 | 18090 ft | 395 kts | 107° |
| 2026-05-08 11:20 | 44.70741 | -92.86934 | 18798 ft | 398 kts | 107° |
| 2026-05-08 11:20 | 44.69904 | -92.83218 | 19499 ft | 400 kts | 107° |
| 2026-05-08 11:21 | 44.69061 | -92.79476 | 20207 ft | 402 kts | 107° |
| 2026-05-08 11:21 | 44.68221 | -92.75756 | 20893 ft | 405 kts | 107° |
| 2026-05-08 11:21 | 44.67365 | -92.71974 | 21574 ft | 407 kts | 107° |
| 2026-05-08 11:21 | 44.66503 | -92.68168 | 22233 ft | 410 kts | 107° |
| 2026-05-08 11:22 | 44.65635 | -92.64338 | 22877 ft | 413 kts | 107° |
| 2026-05-08 11:22 | 44.64755 | -92.60466 | 23512 ft | 416 kts | 107° |
| 2026-05-08 11:22 | 44.63870 | -92.56579 | 24026 ft | 420 kts | 107° |
| 2026-05-08 11:22 | 44.62974 | -92.52653 | 24475 ft | 425 kts | 107° |
| 2026-05-08 11:23 | 44.62067 | -92.48679 | 24917 ft | 429 kts | 107° |
| 2026-05-08 11:23 | 44.61149 | -92.44670 | 25361 ft | 434 kts | 107° |
| 2026-05-08 11:23 | 44.60220 | -92.40616 | 25811 ft | 438 kts | 107° |
| 2026-05-08 11:23 | 44.59282 | -92.36533 | 26244 ft | 442 kts | 107° |
| 2026-05-08 11:24 | 44.58332 | -92.32405 | 26582 ft | 448 kts | 108° |
| 2026-05-08 11:24 | 44.57368 | -92.28221 | 26964 ft | 453 kts | 108° |
| 2026-05-08 11:24 | 44.56394 | -92.24008 | 27419 ft | 456 kts | 108° |
| 2026-05-08 11:24 | 44.55311 | -92.19819 | 27826 ft | 459 kts | 115° |
| 2026-05-08 11:25 | 44.53865 | -92.15876 | 28211 ft | 462 kts | 119° |
| 2026-05-08 11:25 | 44.52274 | -92.11880 | 28595 ft | 466 kts | 120° |
| 2026-05-08 11:25 | 44.50661 | -92.07917 | 28968 ft | 470 kts | 121° |
| 2026-05-08 11:25 | 44.49035 | -92.03932 | 29331 ft | 473 kts | 121° |
| 2026-05-08 11:26 | 44.47424 | -91.99958 | 29689 ft | 477 kts | 120° |
| 2026-05-08 11:26 | 44.45789 | -91.95895 | 30025 ft | 480 kts | 120° |
| 2026-05-08 11:26 | 44.44151 | -91.91805 | 30308 ft | 483 kts | 120° |
| 2026-05-08 11:26 | 44.42507 | -91.87689 | 30612 ft | 485 kts | 120° |
| 2026-05-08 11:27 | 44.40860 | -91.83559 | 30893 ft | 488 kts | 120° |
| 2026-05-08 11:27 | 44.39197 | -91.79392 | 31077 ft | 492 kts | 121° |
| 2026-05-08 11:27 | 44.37522 | -91.75199 | 31298 ft | 495 kts | 121° |
| 2026-05-08 11:27 | 44.35840 | -91.70994 | 31684 ft | 494 kts | 121° |
| 2026-05-08 11:28 | 44.34161 | -91.66804 | 32073 ft | 493 kts | 121° |
| 2026-05-08 11:28 | 44.32480 | -91.62619 | 32376 ft | 495 kts | 121° |
| 2026-05-08 11:28 | 44.30810 | -91.58469 | 32636 ft | 496 kts | 121° |
| 2026-05-08 11:28 | 44.29117 | -91.54267 | 32942 ft | 497 kts | 121° |
| 2026-05-08 11:29 | 44.27419 | -91.50066 | 33276 ft | 497 kts | 121° |
| 2026-05-08 11:29 | 44.25722 | -91.45871 | 33601 ft | 497 kts | 121° |
| 2026-05-08 11:29 | 44.24020 | -91.41666 | 33873 ft | 498 kts | 121° |
| 2026-05-08 11:29 | 44.22312 | -91.37451 | 34118 ft | 499 kts | 121° |
| 2026-05-08 11:30 | 44.21180 | -91.34661 | 34245 ft | 500 kts | 122° |
| 2026-05-08 11:30 | 44.19462 | -91.30433 | 34408 ft | 502 kts | 122° |
| 2026-05-08 11:30 | 44.17737 | -91.26194 | 34624 ft | 503 kts | 122° |
| 2026-05-08 11:30 | 44.16008 | -91.21953 | 34855 ft | 503 kts | 122° |
| 2026-05-08 11:31 | 44.14280 | -91.17720 | 35090 ft | 503 kts | 122° |
| 2026-05-08 11:31 | 44.12549 | -91.13484 | 35335 ft | 503 kts | 122° |
| 2026-05-08 11:31 | 44.10817 | -91.09255 | 35584 ft | 502 kts | 122° |
| 2026-05-08 11:31 | 44.09084 | -91.05028 | 35824 ft | 502 kts | 122° |
| 2026-05-08 11:32 | 44.07352 | -91.00810 | 36061 ft | 502 kts | 122° |
| 2026-05-08 11:32 | 44.05613 | -90.96583 | 36255 ft | 502 kts | 122° |
| 2026-05-08 11:32 | 44.03874 | -90.92362 | 36386 ft | 504 kts | 122° |
| 2026-05-08 11:32 | 44.02147 | -90.88176 | 36503 ft | 506 kts | 122° |
| 2026-05-08 11:33 | 44.00393 | -90.83931 | 36624 ft | 508 kts | 122° |
| 2026-05-08 11:33 | 43.98632 | -90.79675 | 36810 ft | 508 kts | 122° |
| 2026-05-08 11:33 | 43.96873 | -90.75428 | 37068 ft | 506 kts | 123° |
| 2026-05-08 11:34 | 43.93337 | -90.66918 | 37105 ft | 508 kts | 122° |
| 2026-05-08 11:34 | 43.89809 | -90.58443 | 37114 ft | 506 kts | 122° |
| 2026-05-08 11:35 | 43.86296 | -90.50029 | 37103 ft | 503 kts | 123° |
| 2026-05-08 11:35 | 43.82791 | -90.41662 | 37083 ft | 501 kts | 123° |
| 2026-05-08 11:36 | 43.79278 | -90.33308 | 37098 ft | 501 kts | 123° |
| 2026-05-08 11:36 | 43.75765 | -90.24971 | 37106 ft | 502 kts | 123° |
| 2026-05-08 11:37 | 43.72235 | -90.16616 | 37119 ft | 504 kts | 123° |
| 2026-05-08 11:37 | 43.68689 | -90.08250 | 37129 ft | 506 kts | 123° |
| 2026-05-08 11:38 | 43.65141 | -89.99903 | 37145 ft | 508 kts | 123° |
| 2026-05-08 11:38 | 43.61557 | -89.91493 | 37120 ft | 509 kts | 124° |
| 2026-05-08 11:39 | 43.57959 | -89.83072 | 37122 ft | 510 kts | 124° |
| 2026-05-08 11:39 | 43.54733 | -89.74330 | 37118 ft | 515 kts | 111° |
| 2026-05-08 11:40 | 43.52954 | -89.64750 | 37129 ft | 517 kts | 104° |
| 2026-05-08 11:40 | 43.51401 | -89.55062 | 37131 ft | 517 kts | 104° |
| 2026-05-08 11:41 | 43.49811 | -89.45414 | 37134 ft | 516 kts | 104° |
| 2026-05-08 11:41 | 43.48165 | -89.35785 | 37137 ft | 516 kts | 105° |
| 2026-05-08 11:42 | 43.46496 | -89.26179 | 37137 ft | 515 kts | 105° |
| 2026-05-08 11:42 | 43.44824 | -89.16605 | 37143 ft | 514 kts | 105° |
| 2026-05-08 11:43 | 43.43146 | -89.07031 | 37132 ft | 514 kts | 105° |
| 2026-05-08 11:43 | 43.41465 | -88.97481 | 37132 ft | 512 kts | 105° |
| 2026-05-08 11:44 | 43.39790 | -88.88014 | 37136 ft | 513 kts | 105° |
| 2026-05-08 11:44 | 43.38096 | -88.78497 | 37143 ft | 513 kts | 106° |
| 2026-05-08 11:45 | 43.36388 | -88.68945 | 37146 ft | 514 kts | 106° |
| 2026-05-08 11:45 | 43.34670 | -88.59384 | 37138 ft | 515 kts | 106° |
| 2026-05-08 11:46 | 43.32942 | -88.49816 | 37133 ft | 516 kts | 106° |
| 2026-05-08 11:46 | 43.31200 | -88.40228 | 37140 ft | 517 kts | 106° |
| 2026-05-08 11:47 | 43.29448 | -88.30628 | 37152 ft | 517 kts | 106° |
| 2026-05-08 11:47 | 43.27690 | -88.21050 | 37065 ft | 518 kts | 107° |
| 2026-05-08 11:48 | 43.25926 | -88.11484 | 37040 ft | 515 kts | 107° |
| 2026-05-08 11:48 | 43.24160 | -88.01957 | 37036 ft | 517 kts | 107° |
| 2026-05-08 11:49 | 43.22371 | -87.92361 | 37039 ft | 521 kts | 107° |
| 2026-05-08 11:49 | 43.20561 | -87.82701 | 37005 ft | 524 kts | 107° |
| 2026-05-08 11:50 | 43.18737 | -87.73006 | 37020 ft | 526 kts | 107° |
| 2026-05-08 11:50 | 43.16913 | -87.63364 | 37015 ft | 526 kts | 108° |
| 2026-05-08 11:51 | 43.15068 | -87.53656 | 37027 ft | 527 kts | 108° |
| 2026-05-08 11:51 | 43.13214 | -87.43955 | 37021 ft | 526 kts | 108° |
| 2026-05-08 11:52 | 43.11362 | -87.34311 | 37024 ft | 525 kts | 108° |
| 2026-05-08 11:52 | 43.09495 | -87.24639 | 37015 ft | 525 kts | 108° |
| 2026-05-08 11:53 | 43.07630 | -87.15024 | 37021 ft | 524 kts | 108° |
| 2026-05-08 11:53 | 43.05754 | -87.05397 | 37016 ft | 523 kts | 108° |
| 2026-05-08 11:54 | 43.03884 | -86.95854 | 37024 ft | 522 kts | 108° |
| 2026-05-08 11:54 | 43.01989 | -86.86225 | 37017 ft | 522 kts | 108° |
| 2026-05-08 11:55 | 43.00105 | -86.76701 | 37008 ft | 522 kts | 108° |
| 2026-05-08 11:55 | 42.98199 | -86.67114 | 37026 ft | 523 kts | 109° |
| 2026-05-08 11:56 | 42.96277 | -86.57488 | 36995 ft | 523 kts | 109° |
| 2026-05-08 11:56 | 42.94363 | -86.47951 | 37015 ft | 525 kts | 109° |
| 2026-05-08 11:57 | 42.92420 | -86.38318 | 37029 ft | 527 kts | 109° |
| 2026-05-08 11:57 | 42.90467 | -86.28678 | 37021 ft | 529 kts | 109° |
| 2026-05-08 11:58 | 42.88491 | -86.18971 | 37031 ft | 532 kts | 109° |
| 2026-05-08 11:58 | 42.86536 | -86.09411 | 37025 ft | 533 kts | 109° |
| 2026-05-08 11:59 | 42.83564 | -85.94960 | 37025 ft | 534 kts | 109° |
| 2026-05-08 11:59 | 42.81565 | -85.85298 | 37025 ft | 534 kts | 109° |
| 2026-05-08 12:00 | 42.79554 | -85.75627 | 37012 ft | 533 kts | 110° |
| 2026-05-08 12:00 | 42.77552 | -85.66041 | 37011 ft | 532 kts | 110° |
| 2026-05-08 12:01 | 42.75529 | -85.56400 | 37011 ft | 530 kts | 110° |
| 2026-05-08 12:01 | 42.73509 | -85.46820 | 37009 ft | 529 kts | 110° |
| 2026-05-08 12:02 | 42.71494 | -85.37309 | 37003 ft | 528 kts | 110° |
| 2026-05-08 12:02 | 42.69453 | -85.27711 | 37024 ft | 528 kts | 110° |
| 2026-05-08 12:03 | 42.67406 | -85.18116 | 37022 ft | 529 kts | 109° |
| 2026-05-08 12:03 | 42.65989 | -85.08267 | 37020 ft | 533 kts | 101° |
| 2026-05-08 12:04 | 42.64994 | -84.98271 | 37000 ft | 534 kts | 100° |
| 2026-05-08 12:04 | 42.63990 | -84.88262 | 37001 ft | 535 kts | 101° |
| 2026-05-08 12:05 | 42.62912 | -84.78252 | 37000 ft | 536 kts | 101° |
| 2026-05-08 12:05 | 42.61792 | -84.68242 | 37006 ft | 537 kts | 101° |
| 2026-05-08 12:06 | 42.60659 | -84.58208 | 36992 ft | 537 kts | 102° |
| 2026-05-08 12:06 | 42.59520 | -84.48172 | 36995 ft | 538 kts | 102° |
| 2026-05-08 12:07 | 42.58381 | -84.38188 | 36996 ft | 538 kts | 102° |
| 2026-05-08 12:07 | 42.57230 | -84.28173 | 36991 ft | 537 kts | 102° |
| 2026-05-08 12:08 | 42.56070 | -84.18162 | 36986 ft | 537 kts | 102° |
| 2026-05-08 12:08 | 42.54901 | -84.08162 | 36981 ft | 537 kts | 102° |
| 2026-05-08 12:09 | 42.53724 | -83.98166 | 36981 ft | 536 kts | 102° |
| 2026-05-08 12:09 | 42.52539 | -83.88181 | 36975 ft | 536 kts | 102° |
| 2026-05-08 12:10 | 42.51346 | -83.78207 | 36993 ft | 536 kts | 102° |
| 2026-05-08 12:10 | 42.50146 | -83.68248 | 36995 ft | 536 kts | 102° |
| 2026-05-08 12:11 | 42.48935 | -83.58275 | 37000 ft | 536 kts | 102° |
| 2026-05-08 12:11 | 42.47717 | -83.48316 | 36987 ft | 536 kts | 103° |
| 2026-05-08 12:12 | 42.46697 | -83.40031 | 36983 ft | 536 kts | 103° |
| 2026-05-08 12:12 | 42.45462 | -83.30071 | 36984 ft | 537 kts | 103° |
| 2026-05-08 12:13 | 42.44214 | -83.20086 | 36986 ft | 538 kts | 103° |
| 2026-05-08 12:13 | 42.42963 | -83.10144 | 36982 ft | 538 kts | 103° |
| 2026-05-08 12:14 | 42.41698 | -83.00162 | 36991 ft | 539 kts | 103° |
| 2026-05-08 12:14 | 42.40423 | -82.90168 | 36993 ft | 539 kts | 103° |
| 2026-05-08 12:15 | 42.39136 | -82.80147 | 36987 ft | 540 kts | 104° |
| 2026-05-08 12:15 | 42.37866 | -82.70130 | 36956 ft | 541 kts | 101° |
| 2026-05-08 12:16 | 42.37296 | -82.59935 | 36985 ft | 545 kts | 95° |
| 2026-05-08 12:16 | 42.37012 | -82.49672 | 37019 ft | 547 kts | 95° |
| 2026-05-08 12:17 | 42.36679 | -82.39365 | 36973 ft | 548 kts | 96° |
| 2026-05-08 12:17 | 42.36267 | -82.29057 | 36971 ft | 548 kts | 96° |
| 2026-05-08 12:18 | 42.35827 | -82.18775 | 36972 ft | 548 kts | 96° |
| 2026-05-08 12:18 | 42.35381 | -82.08477 | 36972 ft | 548 kts | 96° |
| 2026-05-08 12:19 | 42.34933 | -81.98207 | 36971 ft | 547 kts | 96° |
| 2026-05-08 12:19 | 42.34476 | -81.87946 | 36972 ft | 546 kts | 96° |
| 2026-05-08 12:20 | 42.34011 | -81.77704 | 36972 ft | 546 kts | 96° |
| 2026-05-08 12:20 | 42.33537 | -81.67468 | 36975 ft | 545 kts | 96° |
| 2026-05-08 12:21 | 42.33058 | -81.57306 | 36964 ft | 545 kts | 97° |
| 2026-05-08 12:21 | 42.32574 | -81.47080 | 36972 ft | 545 kts | 97° |
| 2026-05-08 12:22 | 42.32084 | -81.36851 | 36971 ft | 545 kts | 97° |
| 2026-05-08 12:22 | 42.31585 | -81.26607 | 36949 ft | 546 kts | 97° |
| 2026-05-08 12:23 | 42.31076 | -81.16365 | 36971 ft | 547 kts | 97° |
| 2026-05-08 12:23 | 42.30559 | -81.06163 | 36975 ft | 548 kts | 97° |
| 2026-05-08 12:24 | 42.30029 | -80.95868 | 36973 ft | 549 kts | 97° |
| 2026-05-08 12:24 | 42.29490 | -80.85575 | 36956 ft | 550 kts | 97° |
| 2026-05-08 12:25 | 42.28941 | -80.75253 | 36969 ft | 551 kts | 97° |
| 2026-05-08 12:25 | 42.28376 | -80.64920 | 36971 ft | 552 kts | 98° |
| 2026-05-08 12:26 | 42.27796 | -80.54564 | 36977 ft | 553 kts | 98° |
| 2026-05-08 12:26 | 42.27208 | -80.44197 | 36971 ft | 554 kts | 98° |
| 2026-05-08 12:27 | 42.26610 | -80.33810 | 36972 ft | 555 kts | 98° |
| 2026-05-08 12:27 | 42.26002 | -80.23413 | 36975 ft | 556 kts | 98° |
| 2026-05-08 12:28 | 42.25384 | -80.13001 | 36951 ft | 556 kts | 98° |
| 2026-05-08 12:28 | 42.24761 | -80.02661 | 36968 ft | 557 kts | 98° |
| 2026-05-08 12:29 | 42.24123 | -79.92241 | 36981 ft | 557 kts | 98° |
| 2026-05-08 12:29 | 42.23475 | -79.81807 | 36976 ft | 557 kts | 98° |
| 2026-05-08 12:30 | 42.22818 | -79.71382 | 36980 ft | 557 kts | 99° |
| 2026-05-08 12:30 | 42.22152 | -79.60970 | 36978 ft | 557 kts | 99° |
| 2026-05-08 12:31 | 42.21476 | -79.50551 | 36981 ft | 557 kts | 99° |
| 2026-05-08 12:31 | 42.20791 | -79.40138 | 36960 ft | 559 kts | 99° |
| 2026-05-08 12:32 | 42.20095 | -79.29705 | 36976 ft | 558 kts | 99° |
| 2026-05-08 12:32 | 42.19392 | -79.19277 | 36987 ft | 558 kts | 99° |
| 2026-05-08 12:33 | 42.18269 | -79.08984 | 36961 ft | 550 kts | 113° |
| 2026-05-08 12:33 | 42.15854 | -78.99282 | 36961 ft | 545 kts | 117° |
| 2026-05-08 12:34 | 42.13322 | -78.89657 | 36965 ft | 545 kts | 117° |
| 2026-05-08 12:34 | 42.10843 | -78.80006 | 36979 ft | 546 kts | 116° |
| 2026-05-08 12:35 | 42.08398 | -78.70331 | 36952 ft | 546 kts | 116° |
| 2026-05-08 12:35 | 42.05970 | -78.60719 | 36968 ft | 545 kts | 116° |
| 2026-05-08 12:36 | 42.03515 | -78.51059 | 36917 ft | 546 kts | 117° |
| 2026-05-08 12:36 | 42.01049 | -78.41417 | 36968 ft | 545 kts | 117° |
| 2026-05-08 12:37 | 41.98566 | -78.31763 | 36984 ft | 548 kts | 117° |
| 2026-05-08 12:37 | 41.96064 | -78.22061 | 36979 ft | 551 kts | 117° |
| 2026-05-08 12:38 | 41.93537 | -78.12298 | 36970 ft | 553 kts | 117° |
| 2026-05-08 12:38 | 41.90999 | -78.02525 | 36966 ft | 555 kts | 117° |
| 2026-05-08 12:39 | 41.88452 | -77.92755 | 36938 ft | 554 kts | 117° |
| 2026-05-08 12:39 | 41.85895 | -77.82991 | 36962 ft | 554 kts | 117° |
| 2026-05-08 12:40 | 41.83343 | -77.73246 | 36981 ft | 554 kts | 117° |
| 2026-05-08 12:40 | 41.80789 | -77.63508 | 36962 ft | 554 kts | 118° |
| 2026-05-08 12:41 | 41.78229 | -77.53790 | 36967 ft | 552 kts | 118° |
| 2026-05-08 12:41 | 41.75663 | -77.44172 | 36982 ft | 551 kts | 118° |
| 2026-05-08 12:42 | 41.73068 | -77.34505 | 36982 ft | 552 kts | 118° |
| 2026-05-08 12:42 | 41.70471 | -77.24840 | 36980 ft | 552 kts | 118° |
| 2026-05-08 12:43 | 41.67866 | -77.15176 | 36930 ft | 553 kts | 120° |
| 2026-05-08 12:43 | 41.65215 | -77.05405 | 36978 ft | 562 kts | 119° |
| 2026-05-08 12:44 | 41.62533 | -76.95529 | 36984 ft | 565 kts | 119° |
| 2026-05-08 12:44 | 41.59847 | -76.85652 | 36937 ft | 566 kts | 120° |
| 2026-05-08 12:45 | 41.57159 | -76.75819 | 36959 ft | 567 kts | 120° |
| 2026-05-08 12:45 | 41.54429 | -76.65877 | 36958 ft | 567 kts | 120° |
| 2026-05-08 12:46 | 41.51729 | -76.56078 | 36966 ft | 566 kts | 120° |
| 2026-05-08 12:46 | 41.49007 | -76.46226 | 36915 ft | 565 kts | 120° |
| 2026-05-08 12:47 | 41.46290 | -76.36412 | 36956 ft | 564 kts | 120° |
| 2026-05-08 12:47 | 41.43567 | -76.26622 | 36964 ft | 563 kts | 120° |
| 2026-05-08 12:48 | 41.40838 | -76.16847 | 36960 ft | 563 kts | 120° |
| 2026-05-08 12:48 | 41.38098 | -76.07073 | 36951 ft | 562 kts | 121° |
| 2026-05-08 12:49 | 41.35356 | -75.97325 | 36954 ft | 562 kts | 121° |
| 2026-05-08 12:49 | 41.32625 | -75.87635 | 36832 ft | 551 kts | 121° |
| 2026-05-08 12:50 | 41.31285 | -75.82887 | 36274 ft | 548 kts | 122° |
| 2026-05-08 12:50 | 41.29929 | -75.78129 | 35507 ft | 552 kts | 122° |
| 2026-05-08 12:50 | 41.28557 | -75.73330 | 34734 ft | 557 kts | 123° |
| 2026-05-08 12:50 | 41.27188 | -75.68492 | 34012 ft | 564 kts | 121° |
| 2026-05-08 12:51 | 41.25945 | -75.63509 | 33208 ft | 571 kts | 118° |
| 2026-05-08 12:51 | 41.23673 | -75.53372 | 31916 ft | 571 kts | 117° |
| 2026-05-08 12:51 | 41.22572 | -75.48309 | 31260 ft | 570 kts | 117° |
| 2026-05-08 12:52 | 41.21464 | -75.43265 | 30669 ft | 567 kts | 117° |
| 2026-05-08 12:52 | 41.19240 | -75.33351 | 29752 ft | 552 kts | 118° |
| 2026-05-08 12:52 | 41.18135 | -75.28507 | 29233 ft | 546 kts | 118° |
| 2026-05-08 12:53 | 41.17029 | -75.23705 | 28660 ft | 541 kts | 118° |
| 2026-05-08 12:53 | 41.15928 | -75.18953 | 28068 ft | 537 kts | 118° |
| 2026-05-08 12:53 | 41.14830 | -75.14230 | 27394 ft | 535 kts | 118° |
| 2026-05-08 12:53 | 41.13736 | -75.09527 | 26753 ft | 532 kts | 117° |
| 2026-05-08 12:54 | 41.12647 | -75.04844 | 26063 ft | 530 kts | 117° |
| 2026-05-08 12:54 | 41.11932 | -75.01763 | 25657 ft | 527 kts | 117° |
| 2026-05-08 12:54 | 41.10854 | -74.97128 | 25045 ft | 524 kts | 117° |
| 2026-05-08 12:54 | 41.09780 | -74.92526 | 24459 ft | 520 kts | 116° |
| 2026-05-08 12:55 | 41.08711 | -74.87950 | 23768 ft | 519 kts | 116° |
| 2026-05-08 12:55 | 41.07645 | -74.83394 | 22941 ft | 512 kts | 116° |
| 2026-05-08 12:55 | 41.06597 | -74.78916 | 22099 ft | 504 kts | 115° |
| 2026-05-08 12:55 | 41.05566 | -74.74515 | 21276 ft | 495 kts | 115° |
| 2026-05-08 12:56 | 41.04555 | -74.70202 | 20473 ft | 483 kts | 114° |
| 2026-05-08 12:56 | 41.03566 | -74.66001 | 19690 ft | 472 kts | 114° |
| 2026-05-08 12:56 | 41.02599 | -74.61907 | 18927 ft | 460 kts | 114° |
| 2026-05-08 12:56 | 41.01664 | -74.57961 | 18182 ft | 450 kts | 113° |
| 2026-05-08 12:57 | 41.00725 | -74.54005 | 17313 ft | 439 kts | 113° |
| 2026-05-08 12:57 | 40.99836 | -74.50270 | 16487 ft | 431 kts | 114° |
| 2026-05-08 12:57 | 40.98955 | -74.46572 | 15687 ft | 423 kts | 114° |
| 2026-05-08 12:57 | 40.98079 | -74.42897 | 14901 ft | 415 kts | 114° |
| 2026-05-08 12:58 | 40.97223 | -74.39320 | 14149 ft | 412 kts | 114° |
| 2026-05-08 12:58 | 40.96350 | -74.35688 | 13450 ft | 413 kts | 114° |
| 2026-05-08 12:58 | 40.95486 | -74.32084 | 12874 ft | 409 kts | 114° |
| 2026-05-08 12:58 | 40.94653 | -74.28611 | 12328 ft | 404 kts | 114° |
| 2026-05-08 12:59 | 40.93809 | -74.25090 | 11901 ft | 397 kts | 114° |
| 2026-05-08 12:59 | 40.92983 | -74.21649 | 11524 ft | 389 kts | 113° |
| 2026-05-08 12:59 | 40.92175 | -74.18290 | 11263 ft | 378 kts | 114° |
| 2026-05-08 12:59 | 40.91387 | -74.15018 | 11007 ft | 370 kts | 114° |
| 2026-05-08 13:00 | 40.90562 | -74.11816 | 10751 ft | 364 kts | 121° |
| 2026-05-08 13:00 | 40.89326 | -74.08960 | 10517 ft | 356 kts | 130° |
| 2026-05-08 13:00 | 40.87955 | -74.06237 | 10276 ft | 356 kts | 131° |
| 2026-05-08 13:00 | 40.86567 | -74.03520 | 10017 ft | 358 kts | 131° |
| 2026-05-08 13:01 | 40.85184 | -74.00778 | 9780 ft | 356 kts | 130° |
| 2026-05-08 13:01 | 40.83848 | -73.98081 | 9508 ft | 346 kts | 130° |
| 2026-05-08 13:01 | 40.82552 | -73.95456 | 9225 ft | 337 kts | 130° |
| 2026-05-08 13:01 | 40.81299 | -73.92885 | 8972 ft | 329 kts | 130° |
| 2026-05-08 13:02 | 40.80086 | -73.90404 | 8692 ft | 322 kts | 130° |
| 2026-05-08 13:02 | 40.78863 | -73.87960 | 8426 ft | 316 kts | 131° |
| 2026-05-08 13:02 | 40.77645 | -73.85576 | 8172 ft | 310 kts | 131° |
| 2026-05-08 13:02 | 40.76494 | -73.83194 | 7980 ft | 304 kts | 128° |
| 2026-05-08 13:03 | 40.75405 | -73.80820 | 7940 ft | 302 kts | 127° |
| 2026-05-08 13:03 | 40.74317 | -73.78438 | 7719 ft | 307 kts | 127° |
| 2026-05-08 13:03 | 40.73201 | -73.76017 | 7351 ft | 309 kts | 127° |
| 2026-05-08 13:03 | 40.72078 | -73.73610 | 6980 ft | 308 kts | 127° |
| 2026-05-08 13:04 | 40.70944 | -73.71225 | 6621 ft | 306 kts | 127° |
| 2026-05-08 13:04 | 40.69803 | -73.68868 | 6257 ft | 302 kts | 127° |
| 2026-05-08 13:04 | 40.68663 | -73.66568 | 5857 ft | 296 kts | 127° |
| 2026-05-08 13:04 | 40.67531 | -73.64343 | 5458 ft | 289 kts | 127° |
| 2026-05-08 13:05 | 40.66409 | -73.62195 | 5116 ft | 278 kts | 127° |
| 2026-05-08 13:05 | 40.65310 | -73.60153 | 4750 ft | 268 kts | 127° |
| 2026-05-08 13:05 | 40.64223 | -73.58204 | 4338 ft | 260 kts | 127° |
| 2026-05-08 13:05 | 40.63147 | -73.56331 | 3918 ft | 252 kts | 127° |
| 2026-05-08 13:06 | 40.62085 | -73.54533 | 3518 ft | 244 kts | 127° |
| 2026-05-08 13:06 | 40.61028 | -73.52785 | 3151 ft | 245 kts | 127° |
| 2026-05-08 13:06 | 40.59986 | -73.51086 | 2975 ft | 245 kts | 127° |
| 2026-05-08 13:06 | 40.58900 | -73.49331 | 2946 ft | 248 kts | 127° |
| 2026-05-08 13:07 | 40.57818 | -73.47588 | 2923 ft | 244 kts | 127° |
| 2026-05-08 13:07 | 40.56747 | -73.45865 | 2921 ft | 243 kts | 127° |
| 2026-05-08 13:07 | 40.55675 | -73.44138 | 2926 ft | 245 kts | 128° |
| 2026-05-08 13:07 | 40.54378 | -73.42748 | 2913 ft | 246 kts | 157° |
| 2026-05-08 13:08 | 40.52715 | -73.42404 | 2936 ft | 242 kts | 191° |
| 2026-05-08 13:08 | 40.51241 | -73.43338 | 2939 ft | 236 kts | 230° |
| 2026-05-08 13:08 | 40.50560 | -73.45197 | 2904 ft | 223 kts | 270° |
| 2026-05-08 13:08 | 40.50956 | -73.47057 | 2916 ft | 211 kts | 309° |
| 2026-05-08 13:09 | 40.51875 | -73.48509 | 2928 ft | 214 kts | 309° |
| 2026-05-08 13:09 | 40.52726 | -73.50126 | 2925 ft | 216 kts | 304° |
| 2026-05-08 13:09 | 40.53516 | -73.51814 | 2930 ft | 217 kts | 303° |
| 2026-05-08 13:09 | 40.54290 | -73.53528 | 2935 ft | 219 kts | 303° |
| 2026-05-08 13:10 | 40.55065 | -73.55253 | 2926 ft | 219 kts | 303° |
| 2026-05-08 13:10 | 40.55836 | -73.56972 | 2930 ft | 218 kts | 303° |
| 2026-05-08 13:10 | 40.56592 | -73.58655 | 2924 ft | 215 kts | 303° |
| 2026-05-08 13:10 | 40.57355 | -73.60352 | 2811 ft | 217 kts | 303° |
| 2026-05-08 13:11 | 40.58117 | -73.62045 | 2550 ft | 210 kts | 303° |
| 2026-05-08 13:11 | 40.58832 | -73.63639 | 2249 ft | 192 kts | 304° |
| 2026-05-08 13:11 | 40.59480 | -73.65079 | 2007 ft | 175 kts | 305° |
| 2026-05-08 13:11 | 40.60084 | -73.66419 | 1772 ft | 164 kts | 305° |
| 2026-05-08 13:12 | 40.60626 | -73.67623 | 1547 ft | 143 kts | 306° |
| 2026-05-08 13:12 | 40.61109 | -73.68691 | 1366 ft | 131 kts | 304° |
| 2026-05-08 13:12 | 40.61570 | -73.69713 | 1221 ft | 128 kts | 304° |
| 2026-05-08 13:12 | 40.62030 | -73.70732 | 1032 ft | 129 kts | 304° |
| 2026-05-08 13:13 | 40.62488 | -73.71748 | 835 ft | 128 kts | 304° |
| 2026-05-08 13:13 | 40.62936 | -73.72742 | 654 ft | 125 kts | 304° |
| 2026-05-08 13:13 | 40.63377 | -73.73722 | 480 ft | 128 kts | 304° |
| 2026-05-08 13:13 | 40.63850 | -73.74768 | 317 ft | 131 kts | 304° |
| 2026-05-08 13:14 | 40.64307 | -73.75778 | 138 ft | 132 kts | 303° |
| 2026-05-08 13:14 | 40.64756 | -73.76778 | 22 ft | 119 kts | 305° |
| 2026-05-08 13:14 | 40.65099 | -73.77530 | 19 ft | 42 kts | 301° |
| 2026-05-08 13:14 | 40.65207 | -73.77764 | 19 ft | 27 kts | 301° |
| 2026-05-08 13:15 | 40.65228 | -73.77899 | 19 ft | 5 kts | 231° |
| 2026-05-08 13:15 | 40.65201 | -73.77933 | 21 ft | 5 kts | 217° |
| 2026-05-08 13:15 | 40.65170 | -73.77961 | 21 ft | 5 kts | 214° |
| 2026-05-08 13:15 | 40.65139 | -73.77986 | 20 ft | 5 kts | 210° |
| 2026-05-08 13:16 | 40.65113 | -73.78016 | 20 ft | 5 kts | 250° |
| 2026-05-08 13:16 | 40.65122 | -73.78061 | 21 ft | 5 kts | 299° |
| 2026-05-08 13:16 | 40.65141 | -73.78100 | 19 ft | 5 kts | 302° |
| 2026-05-08 13:16 | 40.64965 | -73.78448 | 19 ft | 0 kts | 110° |
| 2026-05-08 13:17 | 40.64965 | -73.78447 | 19 ft | 1 kts | 110° |
| 2026-05-08 13:17 | 40.64964 | -73.78444 | 19 ft | 0 kts | 110° |